sensor_id;sensor_type;location;lat;lon;timestamp;pressure;altitude;pressure_sealevel;temperature;humidity
18275;BME280;19470;49.322;7.218;2023-03-25T00:00:15;97951.72;;;13.78;95.66
18275;BME280;19470;49.322;7.218;2023-03-25T00:02:43;97959.50;;;12.91;100.00
18275;BME280;19470;49.322;7.218;2023-03-25T00:05:12;97962.44;;;14.02;94.11
18275;BME280;19470;49.322;7.218;2023-03-25T00:07:40;97965.00;;;13.49;97.96
18275;BME280;19470;49.322;7.218;2023-03-25T00:10:08;97959.66;;;13.88;96.22
18275;BME280;19470;49.322;7.218;2023-03-25T00:12:36;97960.09;;;13.95;96.88
18275;BME280;19470;49.322;7.218;2023-03-25T00:15:04;97973.66;;;13.30;99.72
18275;BME280;19470;49.322;7.218;2023-03-25T00:17:31;97969.25;;;13.50;100.00
18275;BME280;19470;49.322;7.218;2023-03-25T00:19:57;97973.22;;;13.13;100.00
18275;BME280;19470;49.322;7.218;2023-03-25T00:22:24;97971.44;;;13.43;100.00
18275;BME280;19470;49.322;7.218;2023-03-25T00:24:51;97966.28;;;13.91;100.00
18275;BME280;19470;49.322;7.218;2023-03-25T00:27:18;97974.69;;;12.85;100.00
18275;BME280;19470;49.322;7.218;2023-03-25T00:29:46;97980.34;;;12.63;100.00
18275;BME280;19470;49.322;7.218;2023-03-25T00:32:14;97968.19;;;12.42;100.00
18275;BME280;19470;49.322;7.218;2023-03-25T00:34:41;97985.84;;;11.92;100.00
18275;BME280;19470;49.322;7.218;2023-03-25T00:37:11;97998.03;;;11.98;100.00
18275;BME280;19470;49.322;7.218;2023-03-25T00:39:42;98027.16;;;11.37;100.00
18275;BME280;19470;49.322;7.218;2023-03-25T00:42:09;98004.94;;;10.65;100.00
18275;BME280;19470;49.322;7.218;2023-03-25T00:44:38;97996.69;;;11.44;100.00
18275;BME280;19470;49.322;7.218;2023-03-25T00:47:06;97994.59;;;11.97;100.00
18275;BME280;19470;49.322;7.218;2023-03-25T00:49:32;97959.72;;;10.87;100.00
18275;BME280;19470;49.322;7.218;2023-03-25T00:51:59;97945.50;;;11.69;100.00
18275;BME280;19470;49.322;7.218;2023-03-25T00:54:26;97952.38;;;11.70;100.00
18275;BME280;19470;49.322;7.218;2023-03-25T00:56:52;97961.41;;;11.49;100.00
18275;BME280;19470;49.322;7.218;2023-03-25T00:59:19;97967.78;;;11.53;100.00
18275;BME280;19470;49.322;7.218;2023-03-25T01:01:45;97968.81;;;11.52;100.00
18275;BME280;19470;49.322;7.218;2023-03-25T01:04:13;97966.22;;;11.83;100.00
18275;BME280;19470;49.322;7.218;2023-03-25T01:06:40;97977.00;;;11.15;100.00
18275;BME280;19470;49.322;7.218;2023-03-25T01:09:10;97970.44;;;11.68;100.00
18275;BME280;19470;49.322;7.218;2023-03-25T01:11:38;97974.69;;;11.64;100.00
18275;BME280;19470;49.322;7.218;2023-03-25T01:14:07;97986.34;;;11.63;100.00
18275;BME280;19470;49.322;7.218;2023-03-25T01:16:34;97984.75;;;11.77;100.00
18275;BME280;19470;49.322;7.218;2023-03-25T01:19:00;97972.28;;;11.52;100.00
18275;BME280;19470;49.322;7.218;2023-03-25T01:21:29;97972.53;;;12.07;100.00
18275;BME280;19470;49.322;7.218;2023-03-25T01:23:58;97968.84;;;12.03;100.00
18275;BME280;19470;49.322;7.218;2023-03-25T01:26:24;97979.19;;;11.94;100.00
18275;BME280;19470;49.322;7.218;2023-03-25T01:28:51;97973.66;;;11.86;100.00
18275;BME280;19470;49.322;7.218;2023-03-25T01:31:18;97979.69;;;11.76;100.00
18275;BME280;19470;49.322;7.218;2023-03-25T01:33:47;97990.59;;;11.64;100.00
18275;BME280;19470;49.322;7.218;2023-03-25T01:36:14;97973.06;;;11.33;100.00
18275;BME280;19470;49.322;7.218;2023-03-25T01:38:42;97971.22;;;11.48;100.00
18275;BME280;19470;49.322;7.218;2023-03-25T01:41:09;97978.66;;;11.77;100.00
18275;BME280;19470;49.322;7.218;2023-03-25T01:43:35;97988.16;;;12.29;100.00
18275;BME280;19470;49.322;7.218;2023-03-25T01:46:02;97974.09;;;12.28;100.00
18275;BME280;19470;49.322;7.218;2023-03-25T01:48:32;97999.53;;;11.12;100.00
18275;BME280;19470;49.322;7.218;2023-03-25T01:51:03;97998.56;;;11.85;100.00
18275;BME280;19470;49.322;7.218;2023-03-25T01:53:32;97995.88;;;11.64;100.00
18275;BME280;19470;49.322;7.218;2023-03-25T01:56:01;97991.69;;;11.84;100.00
18275;BME280;19470;49.322;7.218;2023-03-25T01:58:30;97995.91;;;12.05;100.00
18275;BME280;19470;49.322;7.218;2023-03-25T02:00:57;97986.28;;;12.40;100.00
18275;BME280;19470;49.322;7.218;2023-03-25T02:03:26;97992.41;;;12.30;100.00
18275;BME280;19470;49.322;7.218;2023-03-25T02:05:56;97998.56;;;11.90;100.00
18275;BME280;19470;49.322;7.218;2023-03-25T02:08:25;97999.31;;;12.31;100.00
18275;BME280;19470;49.322;7.218;2023-03-25T02:10:52;97992.69;;;11.47;100.00
18275;BME280;19470;49.322;7.218;2023-03-25T02:13:20;97994.81;;;12.26;100.00
18275;BME280;19470;49.322;7.218;2023-03-25T02:16:00;97995.91;;;11.85;100.00
18275;BME280;19470;49.322;7.218;2023-03-25T02:18:37;97999.09;;;11.92;100.00
18275;BME280;19470;49.322;7.218;2023-03-25T02:21:29;97997.53;;;11.91;100.00
18275;BME280;19470;49.322;7.218;2023-03-25T02:24:24;97986.75;;;12.57;100.00
18275;BME280;19470;49.322;7.218;2023-03-25T02:27:14;97974.28;;;12.58;100.00
18275;BME280;19470;49.322;7.218;2023-03-25T02:30:11;97993.00;;;11.91;100.00
18275;BME280;19470;49.322;7.218;2023-03-25T02:32:59;97989.00;;;12.04;100.00
18275;BME280;19470;49.322;7.218;2023-03-25T02:35:43;97993.16;;;12.41;100.00
18275;BME280;19470;49.322;7.218;2023-03-25T02:38:30;97987.16;;;11.54;100.00
18275;BME280;19470;49.322;7.218;2023-03-25T02:41:28;97994.06;;;11.90;100.00
18275;BME280;19470;49.322;7.218;2023-03-25T02:44:00;97980.44;;;12.33;100.00
18275;BME280;19470;49.322;7.218;2023-03-25T02:46:29;97974.09;;;12.18;100.00
18275;BME280;19470;49.322;7.218;2023-03-25T02:48:59;97975.19;;;11.61;100.00
18275;BME280;19470;49.322;7.218;2023-03-25T02:51:29;97976.75;;;12.28;100.00
18275;BME280;19470;49.322;7.218;2023-03-25T02:54:02;97974.34;;;12.32;100.00
18275;BME280;19470;49.322;7.218;2023-03-25T02:56:30;97970.06;;;12.41;100.00
18275;BME280;19470;49.322;7.218;2023-03-25T02:58:58;97979.47;;;11.98;100.00
18275;BME280;19470;49.322;7.218;2023-03-25T03:01:26;97971.75;;;11.35;100.00
18275;BME280;19470;49.322;7.218;2023-03-25T03:03:52;97962.91;;;12.42;100.00
18275;BME280;19470;49.322;7.218;2023-03-25T03:06:20;97964.03;;;12.20;100.00
18275;BME280;19470;49.322;7.218;2023-03-25T03:09:09;97962.47;;;12.14;100.00
18275;BME280;19470;49.322;7.218;2023-03-25T03:11:47;97955.94;;;12.61;100.00
18275;BME280;19470;49.322;7.218;2023-03-25T03:14:29;97949.72;;;11.81;100.00
18275;BME280;19470;49.322;7.218;2023-03-25T03:17:06;97953.47;;;12.05;100.00
18275;BME280;19470;49.322;7.218;2023-03-25T03:19:40;97953.97;;;12.12;100.00
18275;BME280;19470;49.322;7.218;2023-03-25T03:22:20;97950.41;;;12.47;100.00
18275;BME280;19470;49.322;7.218;2023-03-25T03:24:56;97944.44;;;11.75;100.00
18275;BME280;19470;49.322;7.218;2023-03-25T03:27:28;97951.34;;;11.61;100.00
18275;BME280;19470;49.322;7.218;2023-03-25T03:30:03;97952.66;;;12.05;100.00
18275;BME280;19470;49.322;7.218;2023-03-25T03:32:36;97936.69;;;12.20;100.00
18275;BME280;19470;49.322;7.218;2023-03-25T03:35:08;97940.69;;;11.05;100.00
18275;BME280;19470;49.322;7.218;2023-03-25T03:37:40;97941.78;;;12.01;100.00
18275;BME280;19470;49.322;7.218;2023-03-25T03:40:13;97935.69;;;11.55;100.00
18275;BME280;19470;49.322;7.218;2023-03-25T03:42:44;97943.09;;;11.98;100.00
18275;BME280;19470;49.322;7.218;2023-03-25T03:45:17;97953.72;;;11.78;100.00
18275;BME280;19470;49.322;7.218;2023-03-25T03:47:50;97950.00;;;11.64;100.00
18275;BME280;19470;49.322;7.218;2023-03-25T03:50:23;97951.06;;;11.22;100.00
18275;BME280;19470;49.322;7.218;2023-03-25T03:52:54;97954.00;;;11.97;100.00
18275;BME280;19470;49.322;7.218;2023-03-25T03:55:31;97970.41;;;11.22;100.00
18275;BME280;19470;49.322;7.218;2023-03-25T03:58:05;97958.25;;;11.93;100.00
18275;BME280;19470;49.322;7.218;2023-03-25T04:00:37;97979.38;;;11.06;100.00
18275;BME280;19470;49.322;7.218;2023-03-25T04:03:11;97981.03;;;11.48;100.00
18275;BME280;19470;49.322;7.218;2023-03-25T04:06:14;98000.00;;;10.94;100.00
18275;BME280;19470;49.322;7.218;2023-03-25T04:08:50;98007.69;;;11.00;100.00
18275;BME280;19470;49.322;7.218;2023-03-25T04:11:26;97981.84;;;11.64;100.00
18275;BME280;19470;49.322;7.218;2023-03-25T04:13:58;98005.25;;;10.79;100.00
18275;BME280;19470;49.322;7.218;2023-03-25T04:16:25;97986.31;;;11.27;100.00
18275;BME280;19470;49.322;7.218;2023-03-25T04:18:52;97990.84;;;11.47;100.00
18275;BME280;19470;49.322;7.218;2023-03-25T04:21:19;97992.41;;;11.38;100.00
18275;BME280;19470;49.322;7.218;2023-03-25T04:23:46;97996.97;;;11.48;100.00
18275;BME280;19470;49.322;7.218;2023-03-25T04:26:14;98007.03;;;12.12;100.00
18275;BME280;19470;49.322;7.218;2023-03-25T04:28:41;98011.75;;;11.34;100.00
18275;BME280;19470;49.322;7.218;2023-03-25T04:31:11;98003.25;;;11.16;100.00
18275;BME280;19470;49.322;7.218;2023-03-25T04:33:40;97990.84;;;11.52;100.00
18275;BME280;19470;49.322;7.218;2023-03-25T04:36:10;98004.25;;;11.05;100.00
18275;BME280;19470;49.322;7.218;2023-03-25T04:38:37;98005.44;;;11.70;100.00
18275;BME280;19470;49.322;7.218;2023-03-25T04:41:05;97997.84;;;10.86;100.00
18275;BME280;19470;49.322;7.218;2023-03-25T04:43:32;98011.22;;;11.26;100.00
18275;BME280;19470;49.322;7.218;2023-03-25T04:46:00;98006.78;;;11.78;100.00
18275;BME280;19470;49.322;7.218;2023-03-25T04:48:28;98006.75;;;11.47;100.00
18275;BME280;19470;49.322;7.218;2023-03-25T04:57:53;97994.25;;;11.27;100.00
18275;BME280;19470;49.322;7.218;2023-03-25T05:00:37;97993.25;;;11.49;100.00
18275;BME280;19470;49.322;7.218;2023-03-25T05:03:05;97998.53;;;11.74;100.00
18275;BME280;19470;49.322;7.218;2023-03-25T05:05:32;97999.59;;;11.68;100.00
18275;BME280;19470;49.322;7.218;2023-03-25T05:07:58;97995.91;;;12.15;100.00
18275;BME280;19470;49.322;7.218;2023-03-25T05:10:26;97999.03;;;12.27;100.00
18275;BME280;19470;49.322;7.218;2023-03-25T05:12:57;98002.47;;;11.26;100.00
18275;BME280;19470;49.322;7.218;2023-03-25T05:15:23;97996.16;;;11.98;100.00
18275;BME280;19470;49.322;7.218;2023-03-25T05:17:50;97996.16;;;11.63;100.00
18275;BME280;19470;49.322;7.218;2023-03-25T05:20:18;98009.94;;;11.80;100.00
18275;BME280;19470;49.322;7.218;2023-03-25T05:22:46;98002.25;;;11.63;100.00
18275;BME280;19470;49.322;7.218;2023-03-25T05:25:13;98013.94;;;12.13;100.00
18275;BME280;19470;49.322;7.218;2023-03-25T05:27:40;98017.63;;;11.66;100.00
18275;BME280;19470;49.322;7.218;2023-03-25T05:30:07;98020.81;;;11.68;100.00
18275;BME280;19470;49.322;7.218;2023-03-25T05:32:34;98008.94;;;11.91;100.00
18275;BME280;19470;49.322;7.218;2023-03-25T05:35:02;98022.91;;;11.41;100.00
18275;BME280;19470;49.322;7.218;2023-03-25T05:37:30;98056.41;;;11.93;100.00
18275;BME280;19470;49.322;7.218;2023-03-25T05:39:56;98030.41;;;11.95;100.00
18275;BME280;19470;49.322;7.218;2023-03-25T05:42:23;98012.31;;;12.22;100.00
18275;BME280;19470;49.322;7.218;2023-03-25T05:44:50;98015.53;;;11.78;100.00
18275;BME280;19470;49.322;7.218;2023-03-25T05:47:17;98013.94;;;12.13;100.00
18275;BME280;19470;49.322;7.218;2023-03-25T05:49:46;98015.44;;;12.55;100.00
18275;BME280;19470;49.322;7.218;2023-03-25T05:52:12;98005.03;;;12.69;100.00
18275;BME280;19470;49.322;7.218;2023-03-25T05:54:42;98012.81;;;12.40;100.00
18275;BME280;19470;49.322;7.218;2023-03-25T05:57:09;98013.34;;;12.47;100.00
18275;BME280;19470;49.322;7.218;2023-03-25T05:59:36;98019.50;;;12.17;100.00
18275;BME280;19470;49.322;7.218;2023-03-25T06:02:05;98022.44;;;12.05;100.00
18275;BME280;19470;49.322;7.218;2023-03-25T06:04:33;98022.94;;;11.66;100.00
18275;BME280;19470;49.322;7.218;2023-03-25T06:07:05;98023.97;;;12.42;100.00
18275;BME280;19470;49.322;7.218;2023-03-25T06:09:39;98035.16;;;11.62;100.00
18275;BME280;19470;49.322;7.218;2023-03-25T06:18:52;98024.91;;;12.82;100.00
18275;BME280;19470;49.322;7.218;2023-03-25T06:21:24;98017.66;;;12.12;100.00
18275;BME280;19470;49.322;7.218;2023-03-25T06:23:51;98025.06;;;12.31;100.00
18275;BME280;19470;49.322;7.218;2023-03-25T06:26:19;98011.94;;;12.65;100.00
18275;BME280;19470;49.322;7.218;2023-03-25T06:28:46;98021.75;;;12.74;100.00
18275;BME280;19470;49.322;7.218;2023-03-25T06:31:14;98020.84;;;12.24;100.00
18275;BME280;19470;49.322;7.218;2023-03-25T06:33:41;98016.25;;;12.50;100.00
18275;BME280;19470;49.322;7.218;2023-03-25T06:36:09;98008.50;;;12.64;100.00
18275;BME280;19470;49.322;7.218;2023-03-25T06:38:36;98005.88;;;12.59;100.00
18275;BME280;19470;49.322;7.218;2023-03-25T06:41:03;98006.38;;;12.66;100.00
18275;BME280;19470;49.322;7.218;2023-03-25T06:43:31;98006.97;;;12.53;100.00
18275;BME280;19470;49.322;7.218;2023-03-25T06:45:57;97997.34;;;12.67;100.00
18275;BME280;19470;49.322;7.218;2023-03-25T06:48:24;98000.66;;;12.13;100.00
18275;BME280;19470;49.322;7.218;2023-03-25T06:50:51;98010.78;;;12.96;100.00
18275;BME280;19470;49.322;7.218;2023-03-25T06:53:19;98009.16;;;14.18;100.00
18275;BME280;19470;49.322;7.218;2023-03-25T06:55:45;98011.59;;;13.46;100.00
18275;BME280;19470;49.322;7.218;2023-03-25T06:58:12;98003.91;;;13.40;100.00
18275;BME280;19470;49.322;7.218;2023-03-25T07:00:38;98001.16;;;13.55;100.00
18275;BME280;19470;49.322;7.218;2023-03-25T07:03:05;98005.75;;;12.90;100.00
18275;BME280;19470;49.322;7.218;2023-03-25T07:05:31;98003.31;;;13.03;100.00
18275;BME280;19470;49.322;7.218;2023-03-25T07:07:58;97990.22;;;13.12;100.00
18275;BME280;19470;49.322;7.218;2023-03-25T07:10:26;97980.13;;;13.14;100.00
18275;BME280;19470;49.322;7.218;2023-03-25T07:12:53;97984.44;;;14.13;98.07
18275;BME280;19470;49.322;7.218;2023-03-25T07:15:19;98004.91;;;13.88;99.52
18275;BME280;19470;49.322;7.218;2023-03-25T07:17:46;97991.06;;;13.52;100.00
18275;BME280;19470;49.322;7.218;2023-03-25T07:20:13;97976.59;;;13.63;99.83
18275;BME280;19470;49.322;7.218;2023-03-25T07:22:40;97987.72;;;13.36;99.99
18275;BME280;19470;49.322;7.218;2023-03-25T07:25:08;97994.16;;;12.65;100.00
18275;BME280;19470;49.322;7.218;2023-03-25T07:27:35;97993.88;;;13.32;100.00
18275;BME280;19470;49.322;7.218;2023-03-25T07:30:02;97994.50;;;12.48;100.00
18275;BME280;19470;49.322;7.218;2023-03-25T07:32:29;97994.50;;;13.03;100.00
18275;BME280;19470;49.322;7.218;2023-03-25T07:34:55;97991.78;;;13.23;100.00
18275;BME280;19470;49.322;7.218;2023-03-25T07:37:22;98007.25;;;13.11;100.00
18275;BME280;19470;49.322;7.218;2023-03-25T07:39:48;97997.75;;;12.95;100.00
18275;BME280;19470;49.322;7.218;2023-03-25T07:42:15;98009.94;;;13.01;100.00
18275;BME280;19470;49.322;7.218;2023-03-25T07:44:43;97995.75;;;13.65;96.55
18275;BME280;19470;49.322;7.218;2023-03-25T07:47:09;98002.63;;;13.37;100.00
18275;BME280;19470;49.322;7.218;2023-03-25T07:49:36;98004.09;;;13.53;98.97
18275;BME280;19470;49.322;7.218;2023-03-25T07:52:05;98019.31;;;13.43;98.23
18275;BME280;19470;49.322;7.218;2023-03-25T07:54:31;98009.03;;;13.70;95.04
18275;BME280;19470;49.322;7.218;2023-03-25T07:56:58;97998.19;;;13.22;99.73
18275;BME280;19470;49.322;7.218;2023-03-25T07:59:24;98017.47;;;13.43;97.51
18275;BME280;19470;49.322;7.218;2023-03-25T08:01:52;98019.94;;;13.29;98.51
18275;BME280;19470;49.322;7.218;2023-03-25T08:04:19;97998.28;;;13.46;98.36
18275;BME280;19470;49.322;7.218;2023-03-25T08:06:45;98007.50;;;13.59;98.22
18275;BME280;19470;49.322;7.218;2023-03-25T08:09:12;98011.84;;;13.45;96.21
18275;BME280;19470;49.322;7.218;2023-03-25T08:11:38;98008.69;;;13.43;97.11
18275;BME280;19470;49.322;7.218;2023-03-25T08:14:04;98006.63;;;14.03;97.31
18275;BME280;19470;49.322;7.218;2023-03-25T08:16:31;98004.19;;;14.06;92.90
18275;BME280;19470;49.322;7.218;2023-03-25T08:18:59;98012.19;;;13.72;93.24
18275;BME280;19470;49.322;7.218;2023-03-25T08:21:25;98024.72;;;14.01;91.27
18275;BME280;19470;49.322;7.218;2023-03-25T08:23:52;98031.25;;;13.50;94.02
18275;BME280;19470;49.322;7.218;2023-03-25T08:26:22;98016.94;;;14.10;92.38
18275;BME280;19470;49.322;7.218;2023-03-25T08:28:49;98014.31;;;14.33;91.26
18275;BME280;19470;49.322;7.218;2023-03-25T08:31:16;98023.19;;;14.24;89.85
18275;BME280;19470;49.322;7.218;2023-03-25T08:33:44;98015.44;;;14.80;87.47
18275;BME280;19470;49.322;7.218;2023-03-25T08:36:12;98050.63;;;13.56;91.74
18275;BME280;19470;49.322;7.218;2023-03-25T08:38:44;98030.44;;;13.89;93.13
18275;BME280;19470;49.322;7.218;2023-03-25T08:41:10;98034.81;;;14.62;87.54
18275;BME280;19470;49.322;7.218;2023-03-25T08:43:37;98026.94;;;14.76;87.26
18275;BME280;19470;49.322;7.218;2023-03-25T08:46:03;98041.53;;;14.30;87.79
18275;BME280;19470;49.322;7.218;2023-03-25T08:48:30;98036.00;;;14.51;87.06
18275;BME280;19470;49.322;7.218;2023-03-25T08:50:57;98039.66;;;14.31;87.05
18275;BME280;19470;49.322;7.218;2023-03-25T08:53:24;98021.84;;;14.26;88.08
18275;BME280;19470;49.322;7.218;2023-03-25T08:55:52;98026.00;;;14.09;88.91
18275;BME280;19470;49.322;7.218;2023-03-25T08:58:19;98019.44;;;13.96;89.03
18275;BME280;19470;49.322;7.218;2023-03-25T09:00:46;98040.28;;;14.47;87.08
18275;BME280;19470;49.322;7.218;2023-03-25T09:03:13;98019.28;;;14.16;89.81
18275;BME280;19470;49.322;7.218;2023-03-25T09:05:40;98044.13;;;13.72;90.39
18275;BME280;19470;49.322;7.218;2023-03-25T09:08:06;98027.03;;;14.13;88.63
18275;BME280;19470;49.322;7.218;2023-03-25T09:10:35;98047.03;;;14.68;84.19
18275;BME280;19470;49.322;7.218;2023-03-25T09:13:29;98018.78;;;15.10;83.20
18275;BME280;19470;49.322;7.218;2023-03-25T09:15:56;98050.91;;;13.94;85.87
18275;BME280;19470;49.322;7.218;2023-03-25T09:18:23;98024.31;;;14.47;85.27
18275;BME280;19470;49.322;7.218;2023-03-25T09:20:49;98011.16;;;15.22;81.89
18275;BME280;19470;49.322;7.218;2023-03-25T09:23:16;98012.03;;;15.37;81.26
18275;BME280;19470;49.322;7.218;2023-03-25T09:25:44;98020.78;;;13.98;87.60
18275;BME280;19470;49.322;7.218;2023-03-25T09:28:12;98018.28;;;14.36;89.20
18275;BME280;19470;49.322;7.218;2023-03-25T09:30:38;97995.00;;;14.95;88.59
18275;BME280;19470;49.322;7.218;2023-03-25T09:33:05;98015.06;;;13.81;89.76
18275;BME280;19470;49.322;7.218;2023-03-25T09:35:31;98015.34;;;14.38;87.72
18275;BME280;19470;49.322;7.218;2023-03-25T09:37:58;98033.09;;;13.50;90.77
18275;BME280;19470;49.322;7.218;2023-03-25T09:40:25;97999.00;;;13.91;87.16
18275;BME280;19470;49.322;7.218;2023-03-25T09:43:02;97997.88;;;14.55;82.04
18275;BME280;19470;49.322;7.218;2023-03-25T09:45:35;98001.66;;;15.54;76.26
18275;BME280;19470;49.322;7.218;2023-03-25T09:50:47;98009.59;;;14.78;83.17
18275;BME280;19470;49.322;7.218;2023-03-25T09:53:22;98019.47;;;13.22;98.81
18275;BME280;19470;49.322;7.218;2023-03-25T09:55:51;98035.28;;;13.43;100.00
18275;BME280;19470;49.322;7.218;2023-03-25T09:58:33;98032.59;;;13.48;100.00
18275;BME280;19470;49.322;7.218;2023-03-25T10:01:11;98031.72;;;13.92;100.00
18275;BME280;19470;49.322;7.218;2023-03-25T10:03:49;98042.81;;;13.20;100.00
18275;BME280;19470;49.322;7.218;2023-03-25T10:06:20;98043.38;;;14.01;100.00
18275;BME280;19470;49.322;7.218;2023-03-25T10:09:12;98040.59;;;14.16;100.00
18275;BME280;19470;49.322;7.218;2023-03-25T10:11:50;98054.00;;;13.67;100.00
18275;BME280;19470;49.322;7.218;2023-03-25T10:14:26;98065.84;;;13.50;100.00
18275;BME280;19470;49.322;7.218;2023-03-25T10:17:02;98076.84;;;13.28;100.00
18275;BME280;19470;49.322;7.218;2023-03-25T10:19:51;98089.47;;;13.57;100.00
18275;BME280;19470;49.322;7.218;2023-03-25T10:22:25;98114.78;;;12.13;100.00
18275;BME280;19470;49.322;7.218;2023-03-25T10:24:55;98149.09;;;10.84;100.00
18275;BME280;19470;49.322;7.218;2023-03-25T10:27:26;98122.78;;;10.72;100.00
18275;BME280;19470;49.322;7.218;2023-03-25T10:30:03;98112.44;;;11.23;100.00
18275;BME280;19470;49.322;7.218;2023-03-25T10:32:38;98113.63;;;10.90;100.00
18275;BME280;19470;49.322;7.218;2023-03-25T10:35:10;98116.66;;;12.08;100.00
18275;BME280;19470;49.322;7.218;2023-03-25T10:37:40;98106.16;;;13.03;100.00
18275;BME280;19470;49.322;7.218;2023-03-25T10:40:14;98115.25;;;14.01;100.00
18275;BME280;19470;49.322;7.218;2023-03-25T10:42:49;98099.63;;;13.45;100.00
18275;BME280;19470;49.322;7.218;2023-03-25T10:45:23;98102.88;;;15.02;100.00
18275;BME280;19470;49.322;7.218;2023-03-25T10:47:52;98118.50;;;13.93;100.00
18275;BME280;19470;49.322;7.218;2023-03-25T10:50:23;98126.38;;;14.08;100.00
18275;BME280;19470;49.322;7.218;2023-03-25T10:52:50;98092.44;;;15.06;100.00
18275;BME280;19470;49.322;7.218;2023-03-25T10:55:22;98106.84;;;15.05;98.35
18275;BME280;19470;49.322;7.218;2023-03-25T10:57:51;98125.88;;;14.40;100.00
18275;BME280;19470;49.322;7.218;2023-03-25T11:00:18;98106.69;;;15.20;100.00
18275;BME280;19470;49.322;7.218;2023-03-25T11:02:49;98113.63;;;15.64;90.88
18275;BME280;19470;49.322;7.218;2023-03-25T11:05:18;98089.00;;;16.65;83.92
18275;BME280;19470;49.322;7.218;2023-03-25T11:07:48;98113.91;;;16.00;90.48
18275;BME280;19470;49.322;7.218;2023-03-25T11:10:20;98107.06;;;15.08;92.68
18275;BME280;19470;49.322;7.218;2023-03-25T11:12:48;98111.22;;;14.96;97.69
18275;BME280;19470;49.322;7.218;2023-03-25T11:15:18;98103.00;;;14.34;98.14
18275;BME280;19470;49.322;7.218;2023-03-25T11:17:54;98119.78;;;14.00;97.57
18275;BME280;19470;49.322;7.218;2023-03-25T11:20:27;98137.28;;;12.92;100.00
18275;BME280;19470;49.322;7.218;2023-03-25T11:23:04;98119.28;;;12.59;100.00
18275;BME280;19470;49.322;7.218;2023-03-25T11:25:35;98126.72;;;12.41;100.00
18275;BME280;19470;49.322;7.218;2023-03-25T11:28:10;98128.97;;;15.05;92.62
18275;BME280;19470;49.322;7.218;2023-03-25T11:33:44;98119.22;;;16.52;80.20
18275;BME280;19470;49.322;7.218;2023-03-25T11:36:19;98110.28;;;16.43;79.04
18275;BME280;19470;49.322;7.218;2023-03-25T11:38:51;98114.44;;;17.86;73.92
18275;BME280;19470;49.322;7.218;2023-03-25T11:41:18;98101.53;;;17.38;76.19
18275;BME280;19470;49.322;7.218;2023-03-25T11:43:47;98093.63;;;16.78;80.35
18275;BME280;19470;49.322;7.218;2023-03-25T11:46:16;98104.03;;;17.07;73.37
18275;BME280;19470;49.322;7.218;2023-03-25T11:48:45;98101.16;;;17.31;67.50
18275;BME280;19470;49.322;7.218;2023-03-25T11:51:15;98106.00;;;16.09;74.79
18275;BME280;19470;49.322;7.218;2023-03-25T11:53:54;98095.25;;;18.92;61.78
18275;BME280;19470;49.322;7.218;2023-03-25T11:56:25;98088.00;;;19.75;59.69
18275;BME280;19470;49.322;7.218;2023-03-25T11:58:56;98096.59;;;19.29;59.51
18275;BME280;19470;49.322;7.218;2023-03-25T12:01:43;98095.19;;;16.79;61.14
18275;BME280;19470;49.322;7.218;2023-03-25T12:04:18;98109.88;;;16.17;66.24
18275;BME280;19470;49.322;7.218;2023-03-25T12:06:52;98107.25;;;16.30;64.49
18275;BME280;19470;49.322;7.218;2023-03-25T12:09:21;98085.56;;;16.18;66.56
18275;BME280;19470;49.322;7.218;2023-03-25T12:11:53;98095.31;;;17.79;56.84
18275;BME280;19470;49.322;7.218;2023-03-25T12:14:31;98087.19;;;17.71;60.70
18275;BME280;19470;49.322;7.218;2023-03-25T12:17:04;98121.56;;;18.89;54.89
18275;BME280;19470;49.322;7.218;2023-03-25T12:19:46;98092.63;;;18.47;56.80
18275;BME280;19470;49.322;7.218;2023-03-25T12:22:26;98083.28;;;18.13;58.85
18275;BME280;19470;49.322;7.218;2023-03-25T12:25:12;98084.28;;;16.62;60.97
18275;BME280;19470;49.322;7.218;2023-03-25T12:27:51;98103.16;;;16.84;62.49
18275;BME280;19470;49.322;7.218;2023-03-25T12:30:29;98083.78;;;16.27;60.76
18275;BME280;19470;49.322;7.218;2023-03-25T12:33:04;98095.75;;;16.16;57.21
18275;BME280;19470;49.322;7.218;2023-03-25T12:35:43;98082.00;;;16.23;58.05
18275;BME280;19470;49.322;7.218;2023-03-25T12:38:29;98069.09;;;18.12;53.96
18275;BME280;19470;49.322;7.218;2023-03-25T12:41:09;98085.94;;;17.91;51.78
18275;BME280;19470;49.322;7.218;2023-03-25T12:43:47;98084.34;;;16.90;52.20
18275;BME280;19470;49.322;7.218;2023-03-25T12:46:28;98078.19;;;16.75;52.55
18275;BME280;19470;49.322;7.218;2023-03-25T12:49:08;98079.00;;;18.65;48.17
18275;BME280;19470;49.322;7.218;2023-03-25T12:51:46;98087.25;;;18.47;46.84
18275;BME280;19470;49.322;7.218;2023-03-25T12:54:25;98071.91;;;16.66;50.89
18275;BME280;19470;49.322;7.218;2023-03-25T12:57:04;98084.13;;;16.40;51.82
18275;BME280;19470;49.322;7.218;2023-03-25T12:59:58;98081.72;;;15.92;52.34
18275;BME280;19470;49.322;7.218;2023-03-25T13:02:48;98085.22;;;16.39;52.73
18275;BME280;19470;49.322;7.218;2023-03-25T13:05:22;98031.22;;;16.09;54.48
18275;BME280;19470;49.322;7.218;2023-03-25T13:07:55;98070.50;;;16.55;52.05
18275;BME280;19470;49.322;7.218;2023-03-25T13:10:27;98055.97;;;16.89;52.24
18275;BME280;19470;49.322;7.218;2023-03-25T13:12:57;98062.22;;;16.70;51.75
18275;BME280;19470;49.322;7.218;2023-03-25T13:15:26;98069.84;;;17.32;50.96
18275;BME280;19470;49.322;7.218;2023-03-25T13:17:57;98074.22;;;17.14;51.72
18275;BME280;19470;49.322;7.218;2023-03-25T13:20:28;98075.69;;;16.19;52.14
18275;BME280;19470;49.322;7.218;2023-03-25T13:22:58;98050.63;;;17.02;51.91
18275;BME280;19470;49.322;7.218;2023-03-25T13:25:28;98062.00;;;16.67;52.44
18275;BME280;19470;49.322;7.218;2023-03-25T13:27:59;98041.25;;;18.00;48.99
18275;BME280;19470;49.322;7.218;2023-03-25T13:30:31;98035.69;;;17.01;52.38